sensor_id;sensor_type;location;lat;lon;timestamp;temperature;humidity
1259;DHT22;619;51.472;6.628;2023-07-09T00:01:19;29.80;53.30
1259;DHT22;619;51.472;6.628;2023-07-09T00:03:45;29.80;53.40
1259;DHT22;619;51.472;6.628;2023-07-09T00:06:13;29.80;53.60
1259;DHT22;619;51.472;6.628;2023-07-09T00:08:43;29.70;53.60
1259;DHT22;619;51.472;6.628;2023-07-09T00:11:16;29.70;53.70
1259;DHT22;619;51.472;6.628;2023-07-09T00:13:42;29.70;53.90
1259;DHT22;619;51.472;6.628;2023-07-09T00:16:15;29.70;53.90
1259;DHT22;619;51.472;6.628;2023-07-09T00:18:42;29.60;53.90
1259;DHT22;619;51.472;6.628;2023-07-09T00:21:08;29.60;53.90
1259;DHT22;619;51.472;6.628;2023-07-09T00:23:34;29.60;54.10
1259;DHT22;619;51.472;6.628;2023-07-09T00:26:08;29.60;54.10
1259;DHT22;619;51.472;6.628;2023-07-09T00:28:35;29.50;54.20
1259;DHT22;619;51.472;6.628;2023-07-09T00:31:01;29.50;54.20
1259;DHT22;619;51.472;6.628;2023-07-09T00:33:31;29.50;54.20
1259;DHT22;619;51.472;6.628;2023-07-09T00:36:00;29.50;54.20
1259;DHT22;619;51.472;6.628;2023-07-09T00:38:31;29.50;54.20
1259;DHT22;619;51.472;6.628;2023-07-09T00:41:06;29.50;54.30
1259;DHT22;619;51.472;6.628;2023-07-09T00:43:37;29.40;54.30
1259;DHT22;619;51.472;6.628;2023-07-09T00:48:42;29.50;54.50
1259;DHT22;619;51.472;6.628;2023-07-09T00:51:13;29.40;54.40
1259;DHT22;619;51.472;6.628;2023-07-09T00:53:43;29.40;54.40
1259;DHT22;619;51.472;6.628;2023-07-09T00:56:20;29.40;54.50
1259;DHT22;619;51.472;6.628;2023-07-09T00:58:48;29.40;54.50
1259;DHT22;619;51.472;6.628;2023-07-09T01:01:18;29.40;54.50
1259;DHT22;619;51.472;6.628;2023-07-09T01:03:48;29.30;54.70
1259;DHT22;619;51.472;6.628;2023-07-09T01:06:20;29.40;54.80
1259;DHT22;619;51.472;6.628;2023-07-09T01:08:49;29.30;54.90
1259;DHT22;619;51.472;6.628;2023-07-09T01:11:20;29.30;55.10
1259;DHT22;619;51.472;6.628;2023-07-09T01:13:57;29.30;55.30
1259;DHT22;619;51.472;6.628;2023-07-09T01:16:26;29.30;55.70
1259;DHT22;619;51.472;6.628;2023-07-09T01:18:53;29.20;56.00
1259;DHT22;619;51.472;6.628;2023-07-09T01:21:19;29.10;56.20
1259;DHT22;619;51.472;6.628;2023-07-09T01:23:46;29.10;56.40
1259;DHT22;619;51.472;6.628;2023-07-09T01:26:22;29.00;56.90
1259;DHT22;619;51.472;6.628;2023-07-09T01:28:55;28.90;57.10
1259;DHT22;619;51.472;6.628;2023-07-09T01:31:21;28.80;57.40
1259;DHT22;619;51.472;6.628;2023-07-09T01:33:50;28.70;57.70
1259;DHT22;619;51.472;6.628;2023-07-09T01:36:20;28.60;57.80
1259;DHT22;619;51.472;6.628;2023-07-09T01:38:52;28.50;58.00
1259;DHT22;619;51.472;6.628;2023-07-09T01:41:26;28.40;58.30
1259;DHT22;619;51.472;6.628;2023-07-09T01:43:52;28.30;58.50
1259;DHT22;619;51.472;6.628;2023-07-09T01:46:18;28.30;58.80
1259;DHT22;619;51.472;6.628;2023-07-09T01:48:44;28.20;59.10
1259;DHT22;619;51.472;6.628;2023-07-09T01:51:12;28.10;59.20
1259;DHT22;619;51.472;6.628;2023-07-09T01:53:40;28.00;59.40
1259;DHT22;619;51.472;6.628;2023-07-09T01:56:08;27.90;59.50
1259;DHT22;619;51.472;6.628;2023-07-09T01:58:37;27.90;59.90
1259;DHT22;619;51.472;6.628;2023-07-09T02:01:07;27.80;60.20
1259;DHT22;619;51.472;6.628;2023-07-09T02:03:35;27.70;60.50
1259;DHT22;619;51.472;6.628;2023-07-09T02:06:03;27.70;61.00
1259;DHT22;619;51.472;6.628;2023-07-09T02:08:37;27.60;61.20
1259;DHT22;619;51.472;6.628;2023-07-09T02:11:02;27.60;61.60
1259;DHT22;619;51.472;6.628;2023-07-09T02:13:28;27.50;61.80
1259;DHT22;619;51.472;6.628;2023-07-09T02:15:56;27.40;62.10
1259;DHT22;619;51.472;6.628;2023-07-09T02:18:22;27.30;62.40
1259;DHT22;619;51.472;6.628;2023-07-09T02:20:47;27.30;62.60
1259;DHT22;619;51.472;6.628;2023-07-09T02:23:13;27.30;63.00
1259;DHT22;619;51.472;6.628;2023-07-09T02:25:38;27.20;63.20
1259;DHT22;619;51.472;6.628;2023-07-09T02:28:04;27.10;63.30
1259;DHT22;619;51.472;6.628;2023-07-09T02:30:30;27.10;63.70
1259;DHT22;619;51.472;6.628;2023-07-09T02:33:00;27.10;64.00
1259;DHT22;619;51.472;6.628;2023-07-09T02:35:28;27.00;64.20
1259;DHT22;619;51.472;6.628;2023-07-09T02:37:54;27.00;64.60
1259;DHT22;619;51.472;6.628;2023-07-09T02:40:21;26.90;64.60
1259;DHT22;619;51.472;6.628;2023-07-09T02:42:47;26.90;64.90
1259;DHT22;619;51.472;6.628;2023-07-09T02:45:15;26.80;64.90
1259;DHT22;619;51.472;6.628;2023-07-09T02:47:43;26.80;65.20
1259;DHT22;619;51.472;6.628;2023-07-09T02:50:08;26.70;65.30
1259;DHT22;619;51.472;6.628;2023-07-09T02:52:34;26.70;65.40
1259;DHT22;619;51.472;6.628;2023-07-09T02:55:04;26.70;65.70
1259;DHT22;619;51.472;6.628;2023-07-09T02:57:30;26.60;65.90
1259;DHT22;619;51.472;6.628;2023-07-09T02:59:55;26.60;66.10
1259;DHT22;619;51.472;6.628;2023-07-09T03:02:23;26.60;66.30
1259;DHT22;619;51.472;6.628;2023-07-09T03:04:54;26.60;66.40
1259;DHT22;619;51.472;6.628;2023-07-09T03:07:24;26.60;66.50
1259;DHT22;619;51.472;6.628;2023-07-09T03:09:50;26.60;66.60
1259;DHT22;619;51.472;6.628;2023-07-09T03:12:16;26.50;66.80
1259;DHT22;619;51.472;6.628;2023-07-09T03:14:46;26.50;66.70
1259;DHT22;619;51.472;6.628;2023-07-09T03:17:15;26.50;66.70
1259;DHT22;619;51.472;6.628;2023-07-09T03:19:42;26.50;66.50
1259;DHT22;619;51.472;6.628;2023-07-09T03:22:08;26.60;66.20
1259;DHT22;619;51.472;6.628;2023-07-09T03:24:36;26.60;66.00
1259;DHT22;619;51.472;6.628;2023-07-09T03:27:02;26.60;65.70
1259;DHT22;619;51.472;6.628;2023-07-09T03:29:27;26.60;65.40
1259;DHT22;619;51.472;6.628;2023-07-09T03:31:56;26.70;65.20
1259;DHT22;619;51.472;6.628;2023-07-09T03:34:21;26.70;65.10
1259;DHT22;619;51.472;6.628;2023-07-09T03:36:49;26.70;65.80
1259;DHT22;619;51.472;6.628;2023-07-09T03:39:15;26.80;64.90
1259;DHT22;619;51.472;6.628;2023-07-09T03:41:40;26.80;64.80
1259;DHT22;619;51.472;6.628;2023-07-09T03:44:06;26.90;64.80
1259;DHT22;619;51.472;6.628;2023-07-09T03:46:31;26.80;64.60
1259;DHT22;619;51.472;6.628;2023-07-09T03:49:00;26.90;64.50
1259;DHT22;619;51.472;6.628;2023-07-09T03:51:25;26.90;64.50
1259;DHT22;619;51.472;6.628;2023-07-09T03:53:53;26.90;64.60
1259;DHT22;619;51.472;6.628;2023-07-09T03:56:23;27.00;64.60
1259;DHT22;619;51.472;6.628;2023-07-09T03:58:51;26.90;64.50
1259;DHT22;619;51.472;6.628;2023-07-09T04:01:19;26.90;64.50
1259;DHT22;619;51.472;6.628;2023-07-09T04:03:45;27.00;64.70
1259;DHT22;619;51.472;6.628;2023-07-09T04:06:13;27.00;64.90
1259;DHT22;619;51.472;6.628;2023-07-09T04:08:41;27.00;65.00
1259;DHT22;619;51.472;6.628;2023-07-09T04:11:09;27.00;65.20
1259;DHT22;619;51.472;6.628;2023-07-09T04:13:35;27.00;65.30
1259;DHT22;619;51.472;6.628;2023-07-09T04:16:03;27.00;65.40
1259;DHT22;619;51.472;6.628;2023-07-09T04:18:31;27.10;65.40
1259;DHT22;619;51.472;6.628;2023-07-09T04:20:59;27.10;65.10
1259;DHT22;619;51.472;6.628;2023-07-09T04:23:25;27.10;64.50
1259;DHT22;619;51.472;6.628;2023-07-09T04:25:53;27.20;64.30
1259;DHT22;619;51.472;6.628;2023-07-09T04:28:21;27.30;64.00
1259;DHT22;619;51.472;6.628;2023-07-09T04:30:53;27.30;63.60
1259;DHT22;619;51.472;6.628;2023-07-09T04:33:19;27.40;63.20
1259;DHT22;619;51.472;6.628;2023-07-09T04:35:48;27.60;63.00
1259;DHT22;619;51.472;6.628;2023-07-09T04:38:19;27.60;62.70
1259;DHT22;619;51.472;6.628;2023-07-09T04:40:46;27.70;62.40
1259;DHT22;619;51.472;6.628;2023-07-09T04:43:14;27.80;62.20
1259;DHT22;619;51.472;6.628;2023-07-09T04:45:40;27.90;62.00
1259;DHT22;619;51.472;6.628;2023-07-09T04:48:08;27.90;61.60
1259;DHT22;619;51.472;6.628;2023-07-09T04:50:38;28.00;61.40
1259;DHT22;619;51.472;6.628;2023-07-09T04:53:06;28.10;61.20
1259;DHT22;619;51.472;6.628;2023-07-09T04:55:33;28.10;60.80
1259;DHT22;619;51.472;6.628;2023-07-09T04:57:59;28.20;60.70
1259;DHT22;619;51.472;6.628;2023-07-09T05:00:27;28.30;60.40
1259;DHT22;619;51.472;6.628;2023-07-09T05:02:52;28.40;59.90
1259;DHT22;619;51.472;6.628;2023-07-09T05:05:18;28.50;59.60
1259;DHT22;619;51.472;6.628;2023-07-09T05:07:46;28.60;59.30
1259;DHT22;619;51.472;6.628;2023-07-09T05:10:14;28.60;59.10
1259;DHT22;619;51.472;6.628;2023-07-09T05:12:54;28.70;59.00
1259;DHT22;619;51.472;6.628;2023-07-09T05:15:21;28.80;58.90
1259;DHT22;619;51.472;6.628;2023-07-09T05:17:47;28.80;58.70
1259;DHT22;619;51.472;6.628;2023-07-09T05:20:14;28.90;58.70
1259;DHT22;619;51.472;6.628;2023-07-09T05:22:40;29.00;58.60
1259;DHT22;619;51.472;6.628;2023-07-09T05:25:06;29.10;58.50
1259;DHT22;619;51.472;6.628;2023-07-09T05:27:32;29.20;58.20
1259;DHT22;619;51.472;6.628;2023-07-09T05:29:59;29.20;58.00
1259;DHT22;619;51.472;6.628;2023-07-09T05:32:30;29.30;57.90
1259;DHT22;619;51.472;6.628;2023-07-09T05:34:58;29.30;57.70
1259;DHT22;619;51.472;6.628;2023-07-09T05:37:23;29.40;57.70
1259;DHT22;619;51.472;6.628;2023-07-09T05:39:49;29.50;57.70
1259;DHT22;619;51.472;6.628;2023-07-09T05:42:15;29.50;57.80
1259;DHT22;619;51.472;6.628;2023-07-09T05:44:43;29.60;57.90
1259;DHT22;619;51.472;6.628;2023-07-09T05:47:08;29.70;57.80
1259;DHT22;619;51.472;6.628;2023-07-09T05:49:40;29.70;57.70
1259;DHT22;619;51.472;6.628;2023-07-09T05:52:06;29.80;57.60
1259;DHT22;619;51.472;6.628;2023-07-09T05:54:34;29.80;57.40
1259;DHT22;619;51.472;6.628;2023-07-09T05:57:00;29.90;57.20
1259;DHT22;619;51.472;6.628;2023-07-09T05:59:25;29.90;57.10
1259;DHT22;619;51.472;6.628;2023-07-09T06:01:53;30.00;57.30
1259;DHT22;619;51.472;6.628;2023-07-09T06:04:18;30.00;57.70
1259;DHT22;619;51.472;6.628;2023-07-09T06:06:44;30.10;57.00
1259;DHT22;619;51.472;6.628;2023-07-09T06:09:10;30.10;56.90
1259;DHT22;619;51.472;6.628;2023-07-09T06:11:36;30.20;56.80
1259;DHT22;619;51.472;6.628;2023-07-09T06:14:01;30.30;56.70
1259;DHT22;619;51.472;6.628;2023-07-09T06:16:28;30.30;57.10
1259;DHT22;619;51.472;6.628;2023-07-09T06:18:53;30.30;56.40
1259;DHT22;619;51.472;6.628;2023-07-09T06:21:19;30.40;56.50
1259;DHT22;619;51.472;6.628;2023-07-09T06:23:45;30.50;56.50
1259;DHT22;619;51.472;6.628;2023-07-09T06:26:12;30.50;56.20
1259;DHT22;619;51.472;6.628;2023-07-09T06:28:37;30.60;56.70
1259;DHT22;619;51.472;6.628;2023-07-09T06:31:05;30.70;56.10
1259;DHT22;619;51.472;6.628;2023-07-09T06:33:31;30.70;56.20
1259;DHT22;619;51.472;6.628;2023-07-09T06:35:59;30.80;56.20
1259;DHT22;619;51.472;6.628;2023-07-09T06:38:28;30.90;56.00
1259;DHT22;619;51.472;6.628;2023-07-09T06:40:54;31.00;56.00
1259;DHT22;619;51.472;6.628;2023-07-09T06:43:20;31.10;55.90
1259;DHT22;619;51.472;6.628;2023-07-09T06:46:05;31.20;55.50
1259;DHT22;619;51.472;6.628;2023-07-09T06:48:31;31.30;55.10
1259;DHT22;619;51.472;6.628;2023-07-09T06:51:00;31.40;55.10
1259;DHT22;619;51.472;6.628;2023-07-09T06:53:27;31.50;55.30
1259;DHT22;619;51.472;6.628;2023-07-09T06:55:54;31.60;55.20
1259;DHT22;619;51.472;6.628;2023-07-09T06:58:27;31.70;54.80
1259;DHT22;619;51.472;6.628;2023-07-09T07:00:55;31.80;55.00
1259;DHT22;619;51.472;6.628;2023-07-09T07:03:22;32.00;54.80
1259;DHT22;619;51.472;6.628;2023-07-09T07:05:49;32.10;54.20
1259;DHT22;619;51.472;6.628;2023-07-09T07:08:17;32.10;53.90
1259;DHT22;619;51.472;6.628;2023-07-09T07:10:45;32.20;53.60
1259;DHT22;619;51.472;6.628;2023-07-09T07:13:13;32.30;53.40
1259;DHT22;619;51.472;6.628;2023-07-09T07:15:38;32.40;53.20
1259;DHT22;619;51.472;6.628;2023-07-09T07:18:08;32.50;53.40
1259;DHT22;619;51.472;6.628;2023-07-09T07:20:34;32.60;53.50
1259;DHT22;619;51.472;6.628;2023-07-09T07:22:59;32.70;53.20
1259;DHT22;619;51.472;6.628;2023-07-09T07:25:28;32.90;53.20
1259;DHT22;619;51.472;6.628;2023-07-09T07:27:53;33.00;52.90
1259;DHT22;619;51.472;6.628;2023-07-09T07:30:19;33.10;52.80
1259;DHT22;619;51.472;6.628;2023-07-09T07:32:48;33.20;52.70
1259;DHT22;619;51.472;6.628;2023-07-09T07:35:15;33.30;52.60
1259;DHT22;619;51.472;6.628;2023-07-09T07:37:45;33.40;52.70
1259;DHT22;619;51.472;6.628;2023-07-09T07:40:11;33.50;52.60
1259;DHT22;619;51.472;6.628;2023-07-09T07:42:37;33.60;52.60
1259;DHT22;619;51.472;6.628;2023-07-09T07:45:04;33.80;52.30
1259;DHT22;619;51.472;6.628;2023-07-09T07:47:33;33.90;51.50
1259;DHT22;619;51.472;6.628;2023-07-09T07:49:59;34.00;51.40
1259;DHT22;619;51.472;6.628;2023-07-09T07:52:24;34.00;51.40
1259;DHT22;619;51.472;6.628;2023-07-09T07:54:51;34.20;51.80
1259;DHT22;619;51.472;6.628;2023-07-09T07:57:18;34.50;51.20
1259;DHT22;619;51.472;6.628;2023-07-09T07:59:44;34.60;51.10
1259;DHT22;619;51.472;6.628;2023-07-09T08:02:16;34.90;50.90
1259;DHT22;619;51.472;6.628;2023-07-09T08:04:44;35.10;50.40
1259;DHT22;619;51.472;6.628;2023-07-09T08:07:12;35.40;49.70
1259;DHT22;619;51.472;6.628;2023-07-09T08:09:38;35.50;49.30
1259;DHT22;619;51.472;6.628;2023-07-09T08:12:05;35.70;48.90
1259;DHT22;619;51.472;6.628;2023-07-09T08:14:38;35.90;48.50
1259;DHT22;619;51.472;6.628;2023-07-09T08:17:04;36.00;48.10
1259;DHT22;619;51.472;6.628;2023-07-09T08:19:43;36.20;48.40
1259;DHT22;619;51.472;6.628;2023-07-09T08:22:08;36.30;48.10
1259;DHT22;619;51.472;6.628;2023-07-09T08:24:34;36.50;47.60
1259;DHT22;619;51.472;6.628;2023-07-09T08:26:59;36.60;46.90
1259;DHT22;619;51.472;6.628;2023-07-09T08:29:25;36.80;46.90
1259;DHT22;619;51.472;6.628;2023-07-09T08:31:51;36.90;47.30
1259;DHT22;619;51.472;6.628;2023-07-09T08:34:16;37.00;46.60
1259;DHT22;619;51.472;6.628;2023-07-09T08:36:42;37.10;47.00
1259;DHT22;619;51.472;6.628;2023-07-09T08:39:10;37.20;46.80
1259;DHT22;619;51.472;6.628;2023-07-09T08:41:52;37.30;46.40
1259;DHT22;619;51.472;6.628;2023-07-09T08:49:56;37.80;44.30
1259;DHT22;619;51.472;6.628;2023-07-09T08:52:42;38.00;43.90
1259;DHT22;619;51.472;6.628;2023-07-09T08:55:19;38.10;43.50
1259;DHT22;619;51.472;6.628;2023-07-09T08:57:55;38.20;43.20
1259;DHT22;619;51.472;6.628;2023-07-09T09:00:31;38.30;43.00
1259;DHT22;619;51.472;6.628;2023-07-09T09:03:14;38.40;42.80
1259;DHT22;619;51.472;6.628;2023-07-09T09:05:45;38.40;42.30
1259;DHT22;619;51.472;6.628;2023-07-09T09:11:49;38.60;42.20
1259;DHT22;619;51.472;6.628;2023-07-09T09:16:53;38.90;42.20
1259;DHT22;619;51.472;6.628;2023-07-09T09:19:25;38.90;41.80
1259;DHT22;619;51.472;6.628;2023-07-09T09:21:59;39.00;42.00
1259;DHT22;619;51.472;6.628;2023-07-09T09:24:31;39.10;41.50
1259;DHT22;619;51.472;6.628;2023-07-09T09:26:59;39.20;40.50
1259;DHT22;619;51.472;6.628;2023-07-09T09:29:28;39.30;40.40
1259;DHT22;619;51.472;6.628;2023-07-09T09:31:55;39.40;40.90
1259;DHT22;619;51.472;6.628;2023-07-09T09:34:27;39.50;40.50
1259;DHT22;619;51.472;6.628;2023-07-09T09:36:58;39.60;41.10
1259;DHT22;619;51.472;6.628;2023-07-09T09:39:26;39.70;40.40
1259;DHT22;619;51.472;6.628;2023-07-09T09:41:56;39.70;40.30
1259;DHT22;619;51.472;6.628;2023-07-09T09:44:27;39.80;40.20
1259;DHT22;619;51.472;6.628;2023-07-09T09:46:56;39.90;40.50
1259;DHT22;619;51.472;6.628;2023-07-09T09:49:25;40.00;39.10
1259;DHT22;619;51.472;6.628;2023-07-09T09:51:51;40.10;38.60
1259;DHT22;619;51.472;6.628;2023-07-09T09:54:24;40.20;38.60
1259;DHT22;619;51.472;6.628;2023-07-09T09:56:53;40.30;38.20
1259;DHT22;619;51.472;6.628;2023-07-09T09:59:30;40.40;38.50
1259;DHT22;619;51.472;6.628;2023-07-09T10:01:58;40.50;38.30
1259;DHT22;619;51.472;6.628;2023-07-09T10:04:24;40.60;38.30
1259;DHT22;619;51.472;6.628;2023-07-09T10:06:53;40.70;38.30
1259;DHT22;619;51.472;6.628;2023-07-09T10:09:42;40.80;37.60
1259;DHT22;619;51.472;6.628;2023-07-09T10:15:11;41.00;37.00
1259;DHT22;619;51.472;6.628;2023-07-09T10:26:09;41.50;36.20
1259;DHT22;619;51.472;6.628;2023-07-09T10:31:49;41.60;35.70
1259;DHT22;619;51.472;6.628;2023-07-09T10:34:42;41.70;35.70
1259;DHT22;619;51.472;6.628;2023-07-09T10:40:03;41.70;35.00
1259;DHT22;619;51.472;6.628;2023-07-09T10:43:01;41.80;34.80
1259;DHT22;619;51.472;6.628;2023-07-09T10:45:38;41.80;33.80
1259;DHT22;619;51.472;6.628;2023-07-09T10:48:12;41.90;34.90
1259;DHT22;619;51.472;6.628;2023-07-09T10:50:43;42.00;34.20
1259;DHT22;619;51.472;6.628;2023-07-09T10:53:14;42.10;35.10
1259;DHT22;619;51.472;6.628;2023-07-09T10:55:50;42.10;35.00
1259;DHT22;619;51.472;6.628;2023-07-09T11:01:48;42.20;33.90
1259;DHT22;619;51.472;6.628;2023-07-09T11:04:34;42.10;34.50
1259;DHT22;619;51.472;6.628;2023-07-09T11:07:07;42.10;34.70
1259;DHT22;619;51.472;6.628;2023-07-09T11:09:39;42.10;33.80
1259;DHT22;619;51.472;6.628;2023-07-09T11:12:11;42.10;34.00
1259;DHT22;619;51.472;6.628;2023-07-09T11:14:51;42.10;33.30
1259;DHT22;619;51.472;6.628;2023-07-09T11:17:19;42.10;34.70
1259;DHT22;619;51.472;6.628;2023-07-09T11:19:54;42.10;35.30
1259;DHT22;619;51.472;6.628;2023-07-09T11:22:20;42.10;35.20
1259;DHT22;619;51.472;6.628;2023-07-09T11:24:51;42.00;34.90
1259;DHT22;619;51.472;6.628;2023-07-09T11:27:26;42.00;34.50
1259;DHT22;619;51.472;6.628;2023-07-09T11:30:00;42.00;34.70
1259;DHT22;619;51.472;6.628;2023-07-09T11:32:27;42.00;34.60
1259;DHT22;619;51.472;6.628;2023-07-09T11:34:53;42.00;34.40
1259;DHT22;619;51.472;6.628;2023-07-09T11:37:25;42.10;34.30
1259;DHT22;619;51.472;6.628;2023-07-09T11:39:51;42.10;33.90
1259;DHT22;619;51.472;6.628;2023-07-09T11:42:34;42.20;33.60
1259;DHT22;619;51.472;6.628;2023-07-09T11:45:38;42.20;33.00
1259;DHT22;619;51.472;6.628;2023-07-09T11:48:22;42.30;34.00
1259;DHT22;619;51.472;6.628;2023-07-09T11:50:50;42.50;32.60
1259;DHT22;619;51.472;6.628;2023-07-09T11:53:36;42.60;32.40
1259;DHT22;619;51.472;6.628;2023-07-09T11:56:03;42.70;32.40
1259;DHT22;619;51.472;6.628;2023-07-09T11:58:29;42.90;32.90
1259;DHT22;619;51.472;6.628;2023-07-09T12:00:57;43.10;32.60
1259;DHT22;619;51.472;6.628;2023-07-09T12:03:32;43.20;32.60
1259;DHT22;619;51.472;6.628;2023-07-09T12:06:04;43.30;32.60
1259;DHT22;619;51.472;6.628;2023-07-09T12:08:35;43.40;32.10
1259;DHT22;619;51.472;6.628;2023-07-09T12:11:04;43.40;31.80
1259;DHT22;619;51.472;6.628;2023-07-09T12:13:40;43.40;31.90
1259;DHT22;619;51.472;6.628;2023-07-09T12:18:47;43.40;32.60
1259;DHT22;619;51.472;6.628;2023-07-09T12:21:13;43.40;32.40
1259;DHT22;619;51.472;6.628;2023-07-09T12:23:40;43.40;32.20
1259;DHT22;619;51.472;6.628;2023-07-09T12:26:06;43.40;32.70
1259;DHT22;619;51.472;6.628;2023-07-09T12:28:35;43.40;31.90
1259;DHT22;619;51.472;6.628;2023-07-09T12:31:01;43.40;31.40
1259;DHT22;619;51.472;6.628;2023-07-09T12:33:28;43.50;31.60
1259;DHT22;619;51.472;6.628;2023-07-09T12:36:05;43.50;31.30
1259;DHT22;619;51.472;6.628;2023-07-09T12:38:43;43.40;31.00
1259;DHT22;619;51.472;6.628;2023-07-09T12:41:34;43.40;31.40
1259;DHT22;619;51.472;6.628;2023-07-09T12:44:01;43.40;32.50
1259;DHT22;619;51.472;6.628;2023-07-09T12:46:27;43.50;32.60
1259;DHT22;619;51.472;6.628;2023-07-09T12:48:55;43.50;32.20
1259;DHT22;619;51.472;6.628;2023-07-09T12:51:25;43.40;31.70
1259;DHT22;619;51.472;6.628;2023-07-09T12:54:27;43.30;31.80
1259;DHT22;619;51.472;6.628;2023-07-09T12:56:58;43.30;31.80
1259;DHT22;619;51.472;6.628;2023-07-09T12:59:27;43.20;32.50
1259;DHT22;619;51.472;6.628;2023-07-09T13:02:01;43.10;32.80
1259;DHT22;619;51.472;6.628;2023-07-09T13:04:30;43.10;33.30
1259;DHT22;619;51.472;6.628;2023-07-09T13:06:56;43.10;32.80
1259;DHT22;619;51.472;6.628;2023-07-09T13:09:26;43.00;33.00
1259;DHT22;619;51.472;6.628;2023-07-09T13:11:53;42.80;33.00
1259;DHT22;619;51.472;6.628;2023-07-09T13:14:30;42.70;33.40
1259;DHT22;619;51.472;6.628;2023-07-09T13:17:07;42.70;33.10
1259;DHT22;619;51.472;6.628;2023-07-09T13:19:33;42.50;33.70
1259;DHT22;619;51.472;6.628;2023-07-09T13:21:59;42.40;33.30
1259;DHT22;619;51.472;6.628;2023-07-09T13:24:29;42.30;34.10
1259;DHT22;619;51.472;6.628;2023-07-09T13:27:00;42.10;34.20
1259;DHT22;619;51.472;6.628;2023-07-09T13:29:27;42.00;34.10
1259;DHT22;619;51.472;6.628;2023-07-09T13:31:55;41.90;34.70
1259;DHT22;619;51.472;6.628;2023-07-09T13:34:25;41.90;34.80
1259;DHT22;619;51.472;6.628;2023-07-09T13:36:52;41.70;34.80
1259;DHT22;619;51.472;6.628;2023-07-09T13:39:20;41.50;35.10
1259;DHT22;619;51.472;6.628;2023-07-09T13:41:48;41.20;35.30
1259;DHT22;619;51.472;6.628;2023-07-09T13:44:17;40.90;35.80
1259;DHT22;619;51.472;6.628;2023-07-09T13:46:43;40.60;35.90
1259;DHT22;619;51.472;6.628;2023-07-09T13:49:17;40.40;36.50
1259;DHT22;619;51.472;6.628;2023-07-09T13:51:44;40.10;37.90
1259;DHT22;619;51.472;6.628;2023-07-09T13:54:32;39.80;38.80
1259;DHT22;619;51.472;6.628;2023-07-09T13:57:02;39.20;37.80
1259;DHT22;619;51.472;6.628;2023-07-09T13:59:28;38.20;46.80
1259;DHT22;619;51.472;6.628;2023-07-09T14:01:56;36.20;46.70
1259;DHT22;619;51.472;6.628;2023-07-09T14:04:24;34.20;50.80
1259;DHT22;619;51.472;6.628;2023-07-09T14:09:16;31.10;58.90
1259;DHT22;619;51.472;6.628;2023-07-09T14:11:50;30.10;64.20
1259;DHT22;619;51.472;6.628;2023-07-09T14:14:24;29.40;68.60
1259;DHT22;619;51.472;6.628;2023-07-09T14:16:51;28.80;72.40
1259;DHT22;619;51.472;6.628;2023-07-09T14:19:22;28.50;75.30
1259;DHT22;619;51.472;6.628;2023-07-09T14:21:49;28.20;77.30
1259;DHT22;619;51.472;6.628;2023-07-09T14:26:50;27.90;80.90
1259;DHT22;619;51.472;6.628;2023-07-09T14:29:16;27.80;82.30
1259;DHT22;619;51.472;6.628;2023-07-09T14:31:46;27.80;83.60
1259;DHT22;619;51.472;6.628;2023-07-09T14:34:27;27.70;84.80
1259;DHT22;619;51.472;6.628;2023-07-09T14:36:55;27.80;85.90
1259;DHT22;619;51.472;6.628;2023-07-09T14:39:22;27.70;86.20
1259;DHT22;619;51.472;6.628;2023-07-09T14:41:48;27.80;86.20
1259;DHT22;619;51.472;6.628;2023-07-09T14:46:53;27.70;88.60
1259;DHT22;619;51.472;6.628;2023-07-09T14:49:22;27.60;89.80
1259;DHT22;619;51.472;6.628;2023-07-09T14:51:49;27.40;90.10
1259;DHT22;619;51.472;6.628;2023-07-09T14:56:51;27.20;90.70
1259;DHT22;619;51.472;6.628;2023-07-09T14:59:22;27.20;90.90
1259;DHT22;619;51.472;6.628;2023-07-09T15:01:48;27.20;91.00
1259;DHT22;619;51.472;6.628;2023-07-09T15:04:33;27.10;90.80
1259;DHT22;619;51.472;6.628;2023-07-09T15:06:59;27.00;90.30
1259;DHT22;619;51.472;6.628;2023-07-09T15:09:27;27.00;90.40
1259;DHT22;619;51.472;6.628;2023-07-09T15:11:55;26.90;90.50
1259;DHT22;619;51.472;6.628;2023-07-09T15:14:23;26.90;90.80
1259;DHT22;619;51.472;6.628;2023-07-09T15:16:49;26.90;90.90
1259;DHT22;619;51.472;6.628;2023-07-09T15:19:17;26.90;91.40
1259;DHT22;619;51.472;6.628;2023-07-09T15:21:49;27.00;91.60
1259;DHT22;619;51.472;6.628;2023-07-09T15:24:22;27.00;91.80
1259;DHT22;619;51.472;6.628;2023-07-09T15:26:54;26.90;91.80
1259;DHT22;619;51.472;6.628;2023-07-09T15:29:26;26.80;92.00
1259;DHT22;619;51.472;6.628;2023-07-09T15:31:52;26.60;92.40
1259;DHT22;619;51.472;6.628;2023-07-09T15:34:17;26.50;92.80
1259;DHT22;619;51.472;6.628;2023-07-09T15:36:48;26.50;93.30
1259;DHT22;619;51.472;6.628;2023-07-09T15:39:16;26.50;93.60
1259;DHT22;619;51.472;6.628;2023-07-09T15:41:42;26.60;93.80
1259;DHT22;619;51.472;6.628;2023-07-09T15:44:12;26.60;93.90
1259;DHT22;619;51.472;6.628;2023-07-09T15:46:39;26.60;94.00
1259;DHT22;619;51.472;6.628;2023-07-09T15:49:11;26.70;94.00
1259;DHT22;619;51.472;6.628;2023-07-09T15:51:38;26.60;94.10
1259;DHT22;619;51.472;6.628;2023-07-09T15:54:19;26.60;94.30
1259;DHT22;619;51.472;6.628;2023-07-09T15:56:48;26.70;94.40
1259;DHT22;619;51.472;6.628;2023-07-09T16:01:51;26.80;94.80
1259;DHT22;619;51.472;6.628;2023-07-09T16:04:19;26.90;95.00
1259;DHT22;619;51.472;6.628;2023-07-09T16:06:45;27.00;95.00
1259;DHT22;619;51.472;6.628;2023-07-09T16:09:14;27.10;94.90
1259;DHT22;619;51.472;6.628;2023-07-09T16:11:47;27.10;94.80
1259;DHT22;619;51.472;6.628;2023-07-09T16:14:17;27.20;94.60
1259;DHT22;619;51.472;6.628;2023-07-09T16:16:45;27.20;94.60
1259;DHT22;619;51.472;6.628;2023-07-09T16:19:23;27.20;94.50
1259;DHT22;619;51.472;6.628;2023-07-09T16:21:51;27.30;94.60
1259;DHT22;619;51.472;6.628;2023-07-09T16:24:26;27.30;94.40
1259;DHT22;619;51.472;6.628;2023-07-09T16:26:58;27.40;94.30
1259;DHT22;619;51.472;6.628;2023-07-09T16:29:30;27.50;94.30
1259;DHT22;619;51.472;6.628;2023-07-09T16:31:57;27.60;94.30
1259;DHT22;619;51.472;6.628;2023-07-09T16:34:27;27.60;94.20
1259;DHT22;619;51.472;6.628;2023-07-09T16:36:56;27.70;94.20
1259;DHT22;619;51.472;6.628;2023-07-09T16:41:50;27.90;94.00
1259;DHT22;619;51.472;6.628;2023-07-09T16:44:16;28.00;93.70
1259;DHT22;619;51.472;6.628;2023-07-09T16:46:44;28.00;93.40
1259;DHT22;619;51.472;6.628;2023-07-09T16:49:37;28.00;93.30
1259;DHT22;619;51.472;6.628;2023-07-09T16:52:19;28.00;93.10
1259;DHT22;619;51.472;6.628;2023-07-09T16:54:45;28.00;93.50
1259;DHT22;619;51.472;6.628;2023-07-09T16:57:18;28.00;93.10
1259;DHT22;619;51.472;6.628;2023-07-09T16:59:45;28.10;93.10
1259;DHT22;619;51.472;6.628;2023-07-09T17:02:28;28.10;93.10
1259;DHT22;619;51.472;6.628;2023-07-09T17:04:58;28.20;93.00
1259;DHT22;619;51.472;6.628;2023-07-09T17:07:24;28.30;93.00
1259;DHT22;619;51.472;6.628;2023-07-09T17:09:52;28.30;93.00
1259;DHT22;619;51.472;6.628;2023-07-09T17:12:18;28.40;92.90
1259;DHT22;619;51.472;6.628;2023-07-09T17:14:44;28.40;92.90
1259;DHT22;619;51.472;6.628;2023-07-09T17:17:19;28.50;92.90
1259;DHT22;619;51.472;6.628;2023-07-09T17:19:50;28.50;92.80
1259;DHT22;619;51.472;6.628;2023-07-09T17:22:26;28.60;92.90
1259;DHT22;619;51.472;6.628;2023-07-09T17:24:53;28.60;92.80